BEY weather

Beirut Rafic Hariri International Airport
Beirut, Mount Lebanon Governorate, Lebanon

Public forecast

Using degrees Celsius for public forecast. Weather courtesy of forecast.io.

METAR (pilot weather report)

Retrieved 2019/05/20 16:00 UTC (57 minutes ago):

OLBA 201600Z 35009KT CAVOK 25/18 Q1016 NOSIG

TAF (pilot weather forecast)

Forecast is more than 6 hours old.

Retrieved 2019/05/20 06:00 UTC (11 hours ago):

TAF OLBA 200400Z 2006/2112 33012KT 8000 NSC PROB40 TEMPO 2006/2012 5000 BR BECMG 2018/2021 11004KT CAVOK BECMG 2106/2108 34010KT 8000 NSC